TAF KCRP
AMD KCRP 090738Z 0908/1006 17005KT P6SM BKN009 OVC026 TEMPO 0910/0913 1SM BR FM091300 18005KT 1/2SM FG SCT002 BKN008 FM091600 19015G22KT P6SM OVC015 FM092000 17017G23KT P6SM FEW021 SCT026=
METAR KCRP
KCRP 090951Z 18008KT 6SM BR BKN008 OVC013 22/22 A2989 RMK AO2 SLP121 T02220217 ?
SPECI KCRP 090940Z 17008KT 6SM BR BKN008 OVC013 22/22 A2989 RMK AO2 T02220217
KCRP 090851Z 14005KT 6SM BR FEW008 BKN012 OVC250 21/20 A2990 RMK AO2 SLP123 T02110200 56017 ?
SPECI KCRP 090847Z 14006KT 6SM BR FEW008 BKN012 OVC250 21/20 A2990 RMK AO2
SPECI KCRP 090809Z 14004KT 7SM SCT008 SCT018 BKN250 21/19 A2991 RMK AO2 T02060194 ?
WC KCRP
WS KCRP
WV KCRP